createdAt,value
2022-12-05T00:00:41.420Z,-82.30
2022-12-05T00:01:41.411Z,-80.90
2022-12-05T00:02:41.429Z,-82.19
2022-12-05T00:03:41.450Z,-82.19
2022-12-05T00:04:41.446Z,-82.29
2022-12-05T00:05:41.346Z,-80.86
2022-12-05T00:06:41.329Z,-80.90
2022-12-05T00:07:44.333Z,-80.85
2022-12-05T00:08:44.371Z,-80.98
2022-12-05T00:09:41.282Z,-80.89
2022-12-05T00:10:41.291Z,-82.29
2022-12-05T00:11:42.080Z,-82.14
2022-12-05T00:12:41.242Z,-80.78
2022-12-05T00:13:41.225Z,-80.82
2022-12-05T00:14:41.273Z,-82.16
2022-12-05T00:15:41.241Z,-80.64
2022-12-05T00:16:41.260Z,-80.75
2022-12-05T00:17:41.174Z,-80.81
2022-12-05T00:18:41.170Z,-80.73
2022-12-05T00:19:41.153Z,-80.86
2022-12-05T00:20:41.177Z,-80.86
2022-12-05T00:21:41.125Z,-80.92
2022-12-05T00:22:41.107Z,-82.19
2022-12-05T00:23:41.093Z,-80.80
2022-12-05T00:24:41.107Z,-80.42
2022-12-05T00:25:41.071Z,-80.51
2022-12-05T00:26:41.046Z,-80.59
2022-12-05T00:27:44.065Z,-80.77
2022-12-05T00:28:44.035Z,-80.71
2022-12-05T00:29:41.014Z,-80.55
2022-12-05T00:30:41.006Z,-80.54
2022-12-05T00:31:41.102Z,-80.42
2022-12-05T00:32:40.995Z,-80.52
2022-12-05T00:33:40.959Z,-80.48
2022-12-05T00:34:41.005Z,-80.51
2022-12-05T00:35:40.927Z,-80.65
2022-12-05T00:36:40.925Z,-80.76
2022-12-05T00:37:40.900Z,-80.57
2022-12-05T00:38:40.898Z,-80.55
2022-12-05T00:39:40.876Z,-80.54
2022-12-05T00:40:40.927Z,-80.54
2022-12-05T00:41:40.846Z,-80.50
2022-12-05T00:42:40.854Z,-80.63
2022-12-05T00:43:40.820Z,-80.44
2022-12-05T00:44:40.817Z,-80.54
2022-12-05T00:45:40.853Z,-80.54
2022-12-05T00:46:40.809Z,-80.46
2022-12-05T00:47:43.760Z,-80.66
2022-12-05T00:48:43.770Z,-80.57
2022-12-05T00:49:40.789Z,-80.48
2022-12-05T00:50:40.758Z,-80.37
2022-12-05T00:51:40.710Z,-80.34
2022-12-05T00:52:40.703Z,-80.25
2022-12-05T00:53:40.681Z,-80.33
2022-12-05T00:54:40.670Z,-80.14
2022-12-05T00:55:40.692Z,-80.58
2022-12-05T00:56:40.648Z,-80.25
2022-12-05T00:57:40.708Z,-80.34
2022-12-05T00:58:40.621Z,-80.40
2022-12-05T00:59:40.613Z,-80.48
2022-12-05T01:00:40.602Z,-80.13
2022-12-05T01:01:40.656Z,-80.12
2022-12-05T01:02:40.624Z,-80.15
2022-12-05T01:03:40.588Z,-80.20
2022-12-05T01:04:40.553Z,-80.17
2022-12-05T01:05:40.524Z,-80.20
2022-12-05T01:06:40.514Z,-80.17
2022-12-05T01:07:43.549Z,-80.21
2022-12-05T01:08:43.574Z,-78.65
2022-12-05T01:09:40.477Z,-78.74
2022-12-05T01:10:40.465Z,-78.63
2022-12-05T01:11:41.629Z,-78.70
2022-12-05T01:12:40.434Z,-80.14
2022-12-05T01:13:40.415Z,-80.21
2022-12-05T01:14:40.442Z,-80.22
2022-12-05T01:15:40.408Z,-80.21
2022-12-05T01:16:40.522Z,-80.51
2022-12-05T01:17:40.366Z,-80.46
2022-12-05T01:18:40.357Z,-80.11
2022-12-05T01:19:40.344Z,-80.00
2022-12-05T01:20:40.338Z,-78.77
2022-12-05T01:21:40.308Z,-80.23
2022-12-05T01:22:40.339Z,-80.10
2022-12-05T01:23:40.289Z,-80.02
2022-12-05T01:24:40.267Z,-78.65
2022-12-05T01:25:40.258Z,-80.16
2022-12-05T01:26:40.248Z,-80.29
2022-12-05T01:27:43.259Z,-80.17
2022-12-05T01:28:43.287Z,-80.22
2022-12-05T01:29:40.211Z,-80.22
2022-12-05T01:30:40.220Z,-80.44
2022-12-05T01:31:40.213Z,-80.52
2022-12-05T01:32:40.159Z,-80.37
2022-12-05T01:33:40.157Z,-80.22
2022-12-05T01:34:40.131Z,-78.76
2022-12-05T01:35:40.126Z,-80.15
2022-12-05T01:36:40.160Z,-78.50
2022-12-05T01:37:40.090Z,-78.60
2022-12-05T01:38:40.080Z,-80.17
2022-12-05T01:39:40.070Z,-80.08
2022-12-05T01:40:40.059Z,-78.74
2022-12-05T01:41:40.035Z,-78.65
2022-12-05T01:42:40.086Z,-78.68
2022-12-05T01:43:40.012Z,-79.99
2022-12-05T01:44:40.004Z,-78.69
2022-12-05T01:45:40.084Z,-80.07
2022-12-05T01:46:39.981Z,-80.24
2022-12-05T01:47:42.980Z,-80.08
2022-12-05T01:48:42.983Z,-78.72
2022-12-05T01:49:39.936Z,-78.61
2022-12-05T01:50:39.925Z,-78.73
2022-12-05T01:51:39.899Z,-78.67
2022-12-05T01:52:39.893Z,-78.69
2022-12-05T01:53:39.929Z,-78.63
2022-12-05T01:54:39.862Z,-78.82
2022-12-05T01:55:39.847Z,-78.49
2022-12-05T01:56:39.842Z,-78.46
2022-12-05T01:57:39.822Z,-78.40
2022-12-05T01:58:39.814Z,-78.53
2022-12-05T01:59:39.849Z,-78.52
2022-12-05T02:00:39.783Z,-78.64
2022-12-05T02:01:39.808Z,-78.56
2022-12-05T02:02:39.792Z,-78.47
2022-12-05T02:03:39.735Z,-78.49
2022-12-05T02:04:39.735Z,-78.59
2022-12-05T02:05:39.770Z,-78.68
2022-12-05T02:06:39.708Z,-78.61
2022-12-05T02:07:42.779Z,-78.53
2022-12-05T02:08:42.686Z,-78.47
2022-12-05T02:09:39.666Z,-78.60
2022-12-05T02:10:39.655Z,-78.60
2022-12-05T02:11:39.691Z,-78.65
2022-12-05T02:12:39.624Z,-80.01
2022-12-05T02:13:39.605Z,-80.04
2022-12-05T02:14:39.596Z,-78.73
2022-12-05T02:15:39.587Z,-80.14
2022-12-05T02:16:39.676Z,-78.55
2022-12-05T02:17:39.575Z,-78.59
2022-12-05T02:18:39.548Z,-78.60
2022-12-05T02:19:39.529Z,-78.55
2022-12-05T02:20:39.517Z,-80.11
2022-12-05T02:21:39.512Z,-80.06
2022-12-05T02:22:39.554Z,-78.76
2022-12-05T02:23:39.474Z,-80.12
2022-12-05T02:24:39.472Z,-80.12
2022-12-05T02:25:39.463Z,-80.13
2022-12-05T02:26:39.441Z,-80.09
2022-12-05T02:27:42.458Z,-80.21
2022-12-05T02:28:42.446Z,-78.79
2022-12-05T02:29:39.391Z,-80.00
2022-12-05T02:30:39.396Z,-78.64
2022-12-05T02:31:39.437Z,-80.12
2022-12-05T02:32:39.362Z,-80.23
2022-12-05T02:33:39.390Z,-80.13
2022-12-05T02:34:39.334Z,-80.21
2022-12-05T02:35:39.325Z,-80.07
2022-12-05T02:36:39.322Z,-80.38
2022-12-05T02:37:39.301Z,-80.43
2022-12-05T02:38:39.289Z,-80.35
2022-12-05T02:39:39.283Z,-80.40
2022-12-05T02:40:39.316Z,-80.43
2022-12-05T02:41:39.266Z,-80.40
2022-12-05T02:42:39.233Z,-80.63
2022-12-05T02:43:39.212Z,-80.68
2022-12-05T02:44:39.202Z,-80.46
2022-12-05T02:45:39.239Z,-80.55
2022-12-05T02:46:39.172Z,-80.49
2022-12-05T02:47:42.167Z,-80.35
2022-12-05T02:48:42.160Z,-80.13
2022-12-05T02:49:39.148Z,-80.30
2022-12-05T02:50:39.166Z,-80.51
2022-12-05T02:51:39.106Z,-80.13
2022-12-05T02:52:39.094Z,-80.42
2022-12-05T02:53:39.075Z,-80.63
2022-12-05T02:54:39.065Z,-80.63
2022-12-05T02:55:39.046Z,-80.65
2022-12-05T02:56:39.064Z,-80.62
2022-12-05T02:57:39.055Z,-80.44
2022-12-05T02:58:39.058Z,-80.60
2022-12-05T02:59:38.992Z,-80.60
2022-12-05T03:00:38.986Z,-80.67
2022-12-05T03:01:39.037Z,-80.47
2022-12-05T03:02:38.953Z,-80.76
2022-12-05T03:03:38.946Z,-80.48
2022-12-05T03:04:39.030Z,-80.54
2022-12-05T03:05:39.014Z,-80.68
2022-12-05T03:06:38.908Z,-80.76
2022-12-05T03:07:41.933Z,-80.67
2022-12-05T03:08:41.886Z,-80.55
2022-12-05T03:09:38.884Z,-80.54
2022-12-05T03:10:38.964Z,-80.46
2022-12-05T03:11:38.830Z,-80.55
2022-12-05T03:12:38.827Z,-80.55
2022-12-05T03:13:38.862Z,-80.47
2022-12-05T03:14:38.799Z,-80.58
2022-12-05T03:15:38.783Z,-80.51
2022-12-05T03:16:38.843Z,-80.50
2022-12-05T03:17:38.749Z,-80.39
2022-12-05T03:18:38.752Z,-80.61
2022-12-05T03:19:38.775Z,-80.50
2022-12-05T03:20:38.744Z,-80.60
2022-12-05T03:21:38.714Z,-80.42
2022-12-05T03:22:38.699Z,-80.66
2022-12-05T03:23:38.671Z,-80.67
2022-12-05T03:24:38.663Z,-80.37
2022-12-05T03:25:38.722Z,-80.47
2022-12-05T03:26:38.651Z,-80.36
2022-12-05T03:27:41.622Z,-80.34
2022-12-05T03:28:41.622Z,-80.44
2022-12-05T03:29:38.601Z,-80.44
2022-12-05T03:30:38.768Z,-80.15
2022-12-05T03:31:38.623Z,-80.38
2022-12-05T03:32:38.564Z,-80.57
2022-12-05T03:33:38.544Z,-80.44
2022-12-05T03:34:38.533Z,-80.59
2022-12-05T03:35:38.523Z,-80.57
2022-12-05T03:36:38.505Z,-80.48
2022-12-05T03:37:38.522Z,-80.58
2022-12-05T03:38:38.487Z,-80.52
2022-12-05T03:39:38.474Z,-80.61
2022-12-05T03:40:38.467Z,-80.65
2022-12-05T03:41:38.487Z,-80.61
2022-12-05T03:42:38.426Z,-80.41
2022-12-05T03:43:38.407Z,-80.48
2022-12-05T03:44:38.407Z,-80.51
2022-12-05T03:45:38.532Z,-80.57
2022-12-05T03:46:38.437Z,-80.62
2022-12-05T03:47:41.398Z,-80.68
2022-12-05T03:48:41.358Z,-80.67
2022-12-05T03:49:38.395Z,-80.55
2022-12-05T03:50:38.329Z,-80.71
2022-12-05T03:51:38.311Z,-80.63
2022-12-05T03:52:57.172Z,-80.55
2022-12-05T03:53:39.291Z,-80.74
2022-12-05T03:54:38.277Z,-82.22
2022-12-05T03:55:38.364Z,-80.76
2022-12-05T03:56:38.239Z,-80.70
2022-12-05T03:57:38.229Z,-80.54
2022-12-05T03:58:38.211Z,-80.70
2022-12-05T03:59:38.200Z,-82.20
2022-12-05T04:00:38.202Z,-80.77
2022-12-05T04:01:38.319Z,-80.70
2022-12-05T04:02:38.161Z,-80.63
2022-12-05T04:03:38.229Z,-80.87
2022-12-05T04:04:38.140Z,-82.18
2022-12-05T04:05:38.131Z,-82.21
2022-12-05T04:06:38.121Z,-82.31
2022-12-05T04:07:41.196Z,-82.48
2022-12-05T04:08:41.133Z,-82.42
2022-12-05T04:09:38.072Z,-82.50
2022-12-05T04:10:38.063Z,-82.37
2022-12-05T04:11:38.052Z,-82.75
2022-12-05T04:12:38.022Z,-82.50
2022-12-05T04:13:38.025Z,-82.21
2022-12-05T04:14:38.032Z,-80.86
2022-12-05T04:15:38.031Z,-82.19
2022-12-05T04:16:37.983Z,-82.36
2022-12-05T04:17:38.002Z,-82.27
2022-12-05T04:18:37.952Z,-82.40
2022-12-05T04:19:37.947Z,-82.50
2022-12-05T04:20:37.934Z,-82.71
2022-12-05T04:21:37.915Z,-82.40
2022-12-05T04:22:37.924Z,-82.41
2022-12-05T04:23:37.894Z,-82.61
2022-12-05T04:24:37.875Z,-82.45
2022-12-05T04:25:37.864Z,-82.24
2022-12-05T04:26:37.856Z,-82.48
2022-12-05T04:27:40.918Z,-82.42
2022-12-05T04:28:40.851Z,-82.36
2022-12-05T04:29:37.815Z,-82.49
2022-12-05T04:30:37.807Z,-82.44
2022-12-05T04:31:37.788Z,-82.52
2022-12-05T04:32:37.765Z,-82.23
2022-12-05T04:33:37.834Z,-82.27
2022-12-05T04:34:37.758Z,-82.44
2022-12-05T04:35:37.807Z,-82.65
2022-12-05T04:36:37.726Z,-82.69
2022-12-05T04:37:37.725Z,-83.00
2022-12-05T04:38:37.698Z,-82.71
2022-12-05T04:39:37.757Z,-82.62
2022-12-05T04:40:37.781Z,-82.45
2022-12-05T04:41:37.665Z,-82.52
2022-12-05T04:42:37.636Z,-82.74
2022-12-05T04:43:37.637Z,-82.70
2022-12-05T04:44:37.618Z,-82.67
2022-12-05T04:45:37.763Z,-82.48
2022-12-05T04:46:37.677Z,-82.61
2022-12-05T04:47:40.579Z,-82.56
2022-12-05T04:48:40.580Z,-82.71
2022-12-05T04:49:37.548Z,-82.91
2022-12-05T04:50:37.629Z,-82.97
2022-12-05T04:51:37.549Z,-82.95
2022-12-05T04:52:37.499Z,-82.71
2022-12-05T04:53:37.500Z,-82.61
2022-12-05T04:54:37.482Z,-82.52
2022-12-05T04:55:37.501Z,-82.65
2022-12-05T04:56:37.458Z,-82.93
2022-12-05T04:57:37.451Z,-82.94
2022-12-05T04:58:37.511Z,-83.13
2022-12-05T04:59:37.432Z,-82.96
2022-12-05T05:00:37.487Z,-83.11
2022-12-05T05:01:37.428Z,-82.80
2022-12-05T05:02:37.440Z,-82.79
2022-12-05T05:03:37.380Z,-83.07
2022-12-05T05:04:37.404Z,-84.43
2022-12-05T05:05:37.353Z,-84.49
2022-12-05T05:06:37.343Z,-83.02
2022-12-05T05:07:40.348Z,-82.88
2022-12-05T05:08:40.341Z,-82.68
2022-12-05T05:09:37.303Z,-82.94
2022-12-05T05:10:37.336Z,-83.05
2022-12-05T05:11:37.268Z,-83.11
2022-12-05T05:12:37.245Z,-84.39
2022-12-05T05:13:37.234Z,-84.42
2022-12-05T05:14:37.216Z,-82.91
2022-12-05T05:15:37.270Z,-83.02
2022-12-05T05:16:37.315Z,-84.47
2022-12-05T05:17:37.177Z,-84.70
2022-12-05T05:18:37.217Z,-83.07
2022-12-05T05:19:37.166Z,-84.45
2022-12-05T05:20:37.161Z,-84.63
2022-12-05T05:21:37.128Z,-84.66
2022-12-05T05:22:37.117Z,-84.58
2022-12-05T05:23:37.112Z,-84.65
2022-12-05T05:24:37.144Z,-84.68
2022-12-05T05:25:37.080Z,-84.56
2022-12-05T05:26:37.058Z,-83.05
2022-12-05T05:27:40.047Z,-84.40
2022-12-05T05:28:40.039Z,-84.49
2022-12-05T05:29:37.079Z,-84.54
2022-12-05T05:30:37.019Z,-84.60
2022-12-05T05:31:37.040Z,-84.74
2022-12-05T05:32:36.977Z,-84.95
2022-12-05T05:33:36.970Z,-84.98
2022-12-05T05:34:36.959Z,-85.10
2022-12-05T05:35:37.046Z,-85.23
2022-12-05T05:36:36.924Z,-85.19
2022-12-05T05:37:36.913Z,-85.40
2022-12-05T05:38:36.903Z,-85.14
2022-12-05T05:39:36.916Z,-85.31
2022-12-05T05:40:36.912Z,-85.40
2022-12-05T05:41:36.860Z,-86.71
2022-12-05T05:42:36.852Z,-85.32
2022-12-05T05:43:36.832Z,-85.34
2022-12-05T05:44:36.829Z,-85.21
2022-12-05T05:45:36.873Z,-85.23
2022-12-05T05:46:36.859Z,-85.40
2022-12-05T05:47:39.780Z,-85.35
2022-12-05T05:48:39.780Z,-85.10
2022-12-05T05:49:36.753Z,-84.74
2022-12-05T05:50:36.751Z,-85.11
2022-12-05T05:51:36.783Z,-85.02
2022-12-05T05:52:36.713Z,-85.26
2022-12-05T05:53:36.705Z,-84.83
2022-12-05T05:54:36.683Z,-84.56
2022-12-05T05:55:36.685Z,-84.59
2022-12-05T05:56:36.664Z,-84.95
2022-12-05T05:57:36.728Z,-84.64
2022-12-05T05:58:36.644Z,-84.87
2022-12-05T05:59:36.627Z,-85.06
2022-12-05T06:00:36.705Z,-85.02
2022-12-05T06:01:36.597Z,-84.97
2022-12-05T06:02:36.740Z,-85.12
2022-12-05T06:03:36.760Z,-85.03
2022-12-05T06:04:36.555Z,-84.71
2022-12-05T06:05:36.545Z,-84.96
2022-12-05T06:06:36.536Z,-85.09
2022-12-05T06:07:39.579Z,-85.21
2022-12-05T06:08:39.541Z,-85.06
2022-12-05T06:09:36.486Z,-85.26
2022-12-05T06:10:36.477Z,-84.79
2022-12-05T06:11:36.468Z,-85.02
2022-12-05T06:12:36.448Z,-85.06
2022-12-05T06:13:36.496Z,-84.87
2022-12-05T06:14:36.419Z,-85.01
2022-12-05T06:15:36.408Z,-84.96
2022-12-05T06:16:36.516Z,-85.23
2022-12-05T06:17:36.467Z,-86.87
2022-12-05T06:18:36.368Z,-87.12
2022-12-05T06:19:36.391Z,-87.07
2022-12-05T06:20:36.445Z,-87.12
2022-12-05T06:21:36.329Z,-87.04
2022-12-05T06:22:36.309Z,-86.91
2022-12-05T06:23:36.318Z,-87.12
2022-12-05T06:24:36.349Z,-87.01
2022-12-05T06:25:36.280Z,-87.08
2022-12-05T06:26:36.259Z,-87.13
2022-12-05T06:27:39.250Z,-87.07
2022-12-05T06:28:39.253Z,-87.14
2022-12-05T06:29:36.222Z,-87.01
2022-12-05T06:30:36.280Z,-87.04
2022-12-05T06:31:36.230Z,-87.21
2022-12-05T06:32:36.189Z,-87.14
2022-12-05T06:33:36.172Z,-87.29
2022-12-05T06:34:36.162Z,-87.12
2022-12-05T06:35:36.151Z,-87.07
2022-12-05T06:36:36.163Z,-87.06
2022-12-05T06:37:36.123Z,-87.44
2022-12-05T06:38:41.578Z,-87.57
2022-12-05T06:39:37.098Z,-87.54
2022-12-05T06:40:36.083Z,-87.23
2022-12-05T06:41:36.135Z,-87.11
2022-12-05T06:42:36.044Z,-87.14
2022-12-05T06:43:36.044Z,-87.35
2022-12-05T06:44:36.023Z,-87.14
2022-12-05T06:45:36.037Z,-87.21
2022-12-05T06:46:36.001Z,-87.15
2022-12-05T06:47:39.018Z,-87.40
2022-12-05T06:48:38.987Z,-87.36
2022-12-05T06:49:38.125Z,-87.48
2022-12-05T06:50:35.946Z,-87.76
2022-12-05T06:51:35.936Z,-87.86
2022-12-05T06:52:35.971Z,-87.66
2022-12-05T06:53:35.910Z,-87.42
2022-12-05T06:54:35.888Z,-87.39
2022-12-05T06:55:35.877Z,-87.38
2022-12-05T06:56:35.858Z,-87.33
2022-12-05T06:57:35.859Z,-87.45
2022-12-05T06:58:35.889Z,-87.19
2022-12-05T06:59:35.828Z,-87.17
2022-12-05T07:00:35.818Z,-87.29
2022-12-05T07:01:35.873Z,-87.17
2022-12-05T07:02:35.883Z,-87.34
2022-12-05T07:03:35.820Z,-87.82
2022-12-05T07:04:35.766Z,-89.16
2022-12-05T07:05:35.749Z,-87.54
2022-12-05T07:06:35.746Z,-87.54
2022-12-05T07:07:38.760Z,-87.46
2022-12-05T07:08:38.769Z,-87.40
2022-12-05T07:09:35.700Z,-87.67
2022-12-05T07:10:35.684Z,-87.67
2022-12-05T07:11:35.683Z,-87.42
2022-12-05T07:12:35.640Z,-87.38
2022-12-05T07:13:35.641Z,-87.38
2022-12-05T07:14:51.019Z,-87.36
2022-12-05T07:15:36.621Z,-87.15
2022-12-05T07:16:35.709Z,-87.38
2022-12-05T07:17:35.591Z,-86.99
2022-12-05T07:18:35.576Z,-87.18
2022-12-05T07:19:35.569Z,-87.33
2022-12-05T07:21:10.329Z,-87.25
2022-12-05T07:21:36.563Z,-87.35
2022-12-05T07:22:35.514Z,-87.45
2022-12-05T07:23:35.499Z,-87.33
2022-12-05T07:24:35.482Z,-87.22
2022-12-05T07:25:35.474Z,-87.33
2022-12-05T07:26:35.494Z,-87.21
2022-12-05T07:27:38.444Z,-87.46
2022-12-05T07:28:38.444Z,-87.46
2022-12-05T07:29:35.415Z,-87.01
2022-12-05T07:30:35.403Z,-86.95
2022-12-05T07:31:35.470Z,-86.94
2022-12-05T07:32:35.405Z,-87.19
2022-12-05T07:33:35.634Z,-87.19
2022-12-05T07:34:35.371Z,-87.06
2022-12-05T07:35:35.336Z,-87.09
2022-12-05T07:36:35.323Z,-86.91
2022-12-05T07:37:35.366Z,-87.26
2022-12-05T07:38:35.299Z,-87.08
2022-12-05T07:39:35.287Z,-87.22
2022-12-05T07:40:35.276Z,-87.03
2022-12-05T07:41:35.266Z,-87.23
2022-12-05T07:42:35.248Z,-87.35
2022-12-05T07:43:35.286Z,-87.26
2022-12-05T07:44:35.225Z,-87.23
2022-12-05T07:45:35.248Z,-86.95
2022-12-05T07:46:35.188Z,-86.93
2022-12-05T07:47:38.231Z,-87.10
2022-12-05T07:48:38.232Z,-86.77
2022-12-05T07:49:35.169Z,-86.70
2022-12-05T07:50:35.131Z,-86.68
2022-12-05T07:51:35.109Z,-86.88
2022-12-05T07:52:35.112Z,-86.81
2022-12-05T07:53:35.087Z,-86.81
2022-12-05T07:54:35.118Z,-86.86
2022-12-05T07:55:35.059Z,-87.22
2022-12-05T07:56:35.056Z,-87.04
2022-12-05T07:57:35.032Z,-86.89
2022-12-05T07:58:35.027Z,-86.71
2022-12-05T07:59:35.000Z,-86.79
2022-12-05T08:00:35.182Z,-86.74
2022-12-05T08:01:35.075Z,-86.73
2022-12-05T08:02:40.326Z,-85.34
2022-12-05T08:03:35.953Z,-85.37
2022-12-05T08:04:34.938Z,-86.75
2022-12-05T08:05:34.930Z,-86.72
2022-12-05T08:06:34.982Z,-86.77
2022-12-05T08:07:37.950Z,-86.67
2022-12-05T08:08:37.898Z,-86.85
2022-12-05T08:09:34.870Z,-86.78
2022-12-05T08:10:34.859Z,-85.39
2022-12-05T08:11:34.843Z,-86.73
2022-12-05T08:12:34.995Z,-85.35
2022-12-05T08:13:34.811Z,-85.38
2022-12-05T08:14:34.810Z,-86.75
2022-12-05T08:15:34.795Z,-85.36
2022-12-05T08:16:34.882Z,-85.44
2022-12-05T08:17:34.768Z,-85.41
2022-12-05T08:18:34.775Z,-85.44
2022-12-05T08:19:34.743Z,-86.76
2022-12-05T08:20:34.723Z,-86.66
2022-12-05T08:21:34.703Z,-85.29
2022-12-05T08:22:34.725Z,-85.11
2022-12-05T08:23:34.693Z,-85.09
2022-12-05T08:24:34.664Z,-84.98
2022-12-05T08:25:34.650Z,-85.09
2022-12-05T08:26:34.649Z,-85.09
2022-12-05T08:27:37.644Z,-85.21
2022-12-05T08:28:37.665Z,-84.79
2022-12-05T08:29:34.655Z,-84.85
2022-12-05T08:30:34.618Z,-84.92
2022-12-05T08:31:34.577Z,-84.81
2022-12-05T08:32:34.557Z,-84.84
2022-12-05T08:33:34.537Z,-84.88
2022-12-05T08:34:34.537Z,-84.92
2022-12-05T08:35:34.567Z,-84.79
2022-12-05T08:36:34.520Z,-84.95
2022-12-05T08:37:34.491Z,-84.77
2022-12-05T08:38:34.510Z,-84.62
2022-12-05T08:39:38.361Z,-84.83
2022-12-05T08:40:34.468Z,-84.48
2022-12-05T08:41:34.467Z,-84.43
2022-12-05T08:42:34.467Z,-84.43
2022-12-05T08:43:34.409Z,-84.62
2022-12-05T08:44:34.397Z,-84.61
2022-12-05T08:45:34.378Z,-84.48
2022-12-05T08:46:34.421Z,-82.92
2022-12-05T08:47:37.390Z,-83.13
2022-12-05T08:48:37.348Z,-83.15
2022-12-05T08:49:34.310Z,-82.88
2022-12-05T08:50:34.326Z,-83.08
2022-12-05T08:51:34.300Z,-82.99
2022-12-05T08:52:34.353Z,-83.02
2022-12-05T08:53:35.673Z,-83.08
2022-12-05T08:54:34.250Z,-83.04
2022-12-05T08:55:34.260Z,-83.04
2022-12-05T08:56:34.221Z,-82.94
2022-12-05T08:57:34.230Z,-83.09
2022-12-05T08:58:34.200Z,-83.05
2022-12-05T08:59:34.211Z,-82.69
2022-12-05T09:00:34.193Z,-82.95
2022-12-05T09:01:34.267Z,-83.06
2022-12-05T09:02:34.219Z,-83.02
2022-12-05T09:03:34.132Z,-82.92
2022-12-05T09:04:34.121Z,-82.81
2022-12-05T09:05:34.133Z,-83.00
2022-12-05T09:06:34.092Z,-82.91
2022-12-05T09:07:37.115Z,-83.04
2022-12-05T09:08:37.367Z,-82.92
2022-12-05T09:09:34.050Z,-82.78
2022-12-05T09:10:34.056Z,-82.69
2022-12-05T09:11:34.014Z,-82.88
2022-12-05T09:12:34.014Z,-83.00
2022-12-05T09:13:34.004Z,-82.94
2022-12-05T09:14:34.173Z,-82.93
2022-12-05T09:15:34.027Z,-82.82
2022-12-05T09:16:38.014Z,-82.76
2022-12-05T09:17:33.935Z,-82.92
2022-12-05T09:18:33.948Z,-82.95
2022-12-05T09:19:33.915Z,-82.58
2022-12-05T09:20:33.943Z,-82.31
2022-12-05T09:21:33.886Z,-82.51
2022-12-05T09:22:33.904Z,-82.29
2022-12-05T09:23:33.864Z,-82.50
2022-12-05T09:24:33.868Z,-82.55
2022-12-05T09:25:33.866Z,-82.54
2022-12-05T09:26:33.836Z,-82.61
2022-12-05T09:27:36.808Z,-82.69
2022-12-05T09:28:36.874Z,-82.79
2022-12-05T09:29:33.790Z,-82.94
2022-12-05T09:30:33.767Z,-82.81
2022-12-05T09:31:33.847Z,-82.65
2022-12-05T09:32:33.757Z,-82.58
2022-12-05T09:33:33.740Z,-82.75
2022-12-05T09:34:33.756Z,-82.40
2022-12-05T09:35:33.707Z,-82.57
2022-12-05T09:36:33.698Z,-82.56
2022-12-05T09:37:40.922Z,-82.39
2022-12-05T09:38:34.668Z,-82.59
2022-12-05T09:39:33.666Z,-82.56
2022-12-05T09:40:33.641Z,-82.58
2022-12-05T09:41:33.640Z,-82.48
2022-12-05T09:42:33.628Z,-82.45
2022-12-05T09:43:33.620Z,-82.45
2022-12-05T09:44:33.631Z,-82.54
2022-12-05T09:45:33.570Z,-82.61
2022-12-05T09:46:35.751Z,-82.81
2022-12-05T09:47:36.562Z,-82.43
2022-12-05T09:48:36.545Z,-82.61
2022-12-05T09:49:33.521Z,-82.60
2022-12-05T09:50:33.541Z,-82.61
2022-12-05T09:51:33.481Z,-82.76
2022-12-05T09:52:33.491Z,-83.01
2022-12-05T09:53:33.461Z,-84.46
2022-12-05T09:54:33.452Z,-83.00
2022-12-05T09:55:33.431Z,-83.04
2022-12-05T09:56:33.489Z,-82.89
2022-12-05T09:57:34.069Z,-84.50
2022-12-05T09:58:33.393Z,-84.64
2022-12-05T09:59:33.384Z,-84.54
2022-12-05T10:00:33.377Z,-82.86
2022-12-05T10:01:33.398Z,-82.53
2022-12-05T10:02:33.384Z,-82.21
2022-12-05T10:03:33.325Z,-81.00
2022-12-05T10:04:33.392Z,-82.36
2022-12-05T10:05:33.300Z,-82.23
2022-12-05T10:06:33.300Z,-80.55
2022-12-05T10:07:36.340Z,-80.36
2022-12-05T10:08:36.325Z,-80.34
2022-12-05T10:09:33.260Z,-80.48
2022-12-05T10:10:33.254Z,-80.63
2022-12-05T10:11:33.228Z,-80.36
2022-12-05T10:12:33.217Z,-80.40
2022-12-05T10:13:33.254Z,-80.61
2022-12-05T10:14:33.196Z,-80.39
2022-12-05T10:15:33.567Z,-80.64
2022-12-05T10:16:33.196Z,-80.50
2022-12-05T10:17:33.147Z,-80.45
2022-12-05T10:18:33.147Z,-80.52
2022-12-05T10:19:33.317Z,-80.56
2022-12-05T10:20:33.128Z,-80.57
2022-12-05T10:21:33.100Z,-80.59
2022-12-05T10:22:33.091Z,-80.69
2022-12-05T10:24:34.099Z,-80.54
2022-12-05T10:25:33.038Z,-80.13
2022-12-05T10:26:33.043Z,-80.27
2022-12-05T10:27:40.045Z,-80.12
2022-12-05T10:28:36.027Z,-80.15
2022-12-05T10:29:33.036Z,-78.69
2022-12-05T10:30:32.981Z,-80.22
2022-12-05T10:31:33.003Z,-80.34
2022-12-05T10:32:32.947Z,-80.47
2022-12-05T10:33:32.938Z,-78.80
2022-12-05T10:34:32.930Z,-80.21
2022-12-05T10:35:32.959Z,-80.31
2022-12-05T10:36:32.902Z,-80.32
2022-12-05T10:37:32.900Z,-80.37
2022-12-05T10:38:32.898Z,-80.38
2022-12-05T10:39:32.873Z,-80.44
2022-12-05T10:40:32.861Z,-80.40
2022-12-05T10:41:32.900Z,-80.12
2022-12-05T10:42:32.829Z,-80.21
2022-12-05T10:43:32.812Z,-78.74
2022-12-05T10:44:32.791Z,-78.34
2022-12-05T10:45:32.780Z,-78.13
2022-12-05T10:46:32.882Z,-78.22
2022-12-05T10:47:35.814Z,-78.30
2022-12-05T10:48:35.763Z,-78.30
2022-12-05T10:49:32.734Z,-78.11
2022-12-05T10:50:32.723Z,-78.13
2022-12-05T10:51:37.580Z,-78.21
2022-12-05T10:52:33.702Z,-78.22
2022-12-05T10:53:32.704Z,-78.25
2022-12-05T10:54:32.713Z,-78.21
2022-12-05T10:55:32.663Z,-78.41
2022-12-05T10:56:32.695Z,-78.42
2022-12-05T10:57:32.628Z,-78.38
2022-12-05T10:58:32.604Z,-78.61
2022-12-05T10:59:32.584Z,-78.42
2022-12-05T11:00:32.576Z,-78.20
2022-12-05T11:01:32.591Z,-78.07
2022-12-05T11:02:32.606Z,-76.59
2022-12-05T11:03:32.555Z,-76.58
2022-12-05T11:04:32.546Z,-76.66
2022-12-05T11:05:32.585Z,-76.51
2022-12-05T11:06:32.505Z,-76.55
2022-12-05T11:07:35.616Z,-76.63
2022-12-05T11:09:03.168Z,-76.49
2022-12-05T11:09:33.476Z,-76.15
2022-12-05T11:10:32.466Z,-76.01
2022-12-05T11:11:32.487Z,-76.29
2022-12-05T11:12:32.418Z,-76.07
2022-12-05T11:13:32.406Z,-74.66
2022-12-05T11:14:32.398Z,-74.28
2022-12-05T11:15:32.399Z,-74.30
2022-12-05T11:16:32.368Z,-74.34
2022-12-05T11:17:32.406Z,-74.43
2022-12-05T11:18:32.348Z,-74.30
2022-12-05T11:19:32.361Z,-74.24
2022-12-05T11:20:32.328Z,-74.27
2022-12-05T11:21:32.311Z,-74.12
2022-12-05T11:22:32.307Z,-74.09
2022-12-05T11:23:32.308Z,-74.20
2022-12-05T11:24:32.279Z,-74.15
2022-12-05T11:25:32.258Z,-74.43
2022-12-05T11:26:32.242Z,-74.54
2022-12-05T11:27:35.240Z,-74.63
2022-12-05T11:28:35.271Z,-74.39
2022-12-05T11:29:32.190Z,-74.14
2022-12-05T11:30:32.199Z,-72.62
2022-12-05T11:31:32.238Z,-74.19
2022-12-05T11:32:32.170Z,-74.05
2022-12-05T11:33:32.173Z,-73.97
2022-12-05T11:34:32.181Z,-72.59
2022-12-05T11:35:32.123Z,-72.50
2022-12-05T11:36:32.121Z,-72.71
2022-12-05T11:37:32.103Z,-74.19
2022-12-05T11:38:32.073Z,-74.11
2022-12-05T11:39:32.080Z,-72.59
2022-12-05T11:40:37.649Z,-72.64
2022-12-05T11:41:33.034Z,-72.73
2022-12-05T11:42:32.040Z,-72.54
2022-12-05T11:43:32.025Z,-72.66
2022-12-05T11:44:32.054Z,-74.01
2022-12-05T11:45:32.013Z,-72.57
2022-12-05T11:46:32.094Z,-74.34
2022-12-05T11:47:34.963Z,-74.11
2022-12-05T11:48:34.998Z,-74.04
2022-12-05T11:49:31.954Z,-74.19
2022-12-05T11:50:31.968Z,-74.22
2022-12-05T11:51:31.922Z,-74.07
2022-12-05T11:52:34.781Z,-74.22
2022-12-05T11:53:32.882Z,-73.92
2022-12-05T11:55:03.208Z,-73.97
2022-12-05T11:55:32.863Z,-74.14
2022-12-05T11:56:31.857Z,-74.28
2022-12-05T11:57:31.876Z,-74.19
2022-12-05T11:58:31.838Z,-74.39
2022-12-05T11:59:31.815Z,-74.28
2022-12-05T12:00:31.864Z,-74.44
2022-12-05T12:01:31.827Z,-74.47
2022-12-05T12:02:31.851Z,-74.37
2022-12-05T12:03:33.650Z,-74.00
2022-12-05T12:04:31.757Z,-74.16
2022-12-05T12:05:31.737Z,-74.32
2022-12-05T12:06:31.717Z,-74.45
2022-12-05T12:07:34.742Z,-74.51
2022-12-05T12:08:34.739Z,-74.41
2022-12-05T12:09:31.725Z,-74.47
2022-12-05T12:10:31.867Z,-74.64
2022-12-05T12:11:31.676Z,-74.47
2022-12-05T12:12:31.631Z,-74.24
2022-12-05T12:13:31.631Z,-74.24
2022-12-05T12:14:31.613Z,-74.19
2022-12-05T12:15:31.610Z,-74.05
2022-12-05T12:16:31.729Z,-74.04
2022-12-05T12:17:31.579Z,-73.96
2022-12-05T12:18:31.562Z,-72.66
2022-12-05T12:19:31.559Z,-72.41
2022-12-05T12:20:31.540Z,-72.04
2022-12-05T12:21:36.971Z,-72.20
2022-12-05T12:22:32.513Z,-72.02
2022-12-05T12:23:31.511Z,-70.74
2022-12-05T12:24:31.481Z,-70.71
2022-12-05T12:25:31.470Z,-72.14
2022-12-05T12:26:31.461Z,-72.14
2022-12-05T12:27:34.479Z,-70.77
2022-12-05T12:28:34.441Z,-70.63
2022-12-05T12:29:31.429Z,-70.53